Avalon, Wisconsin
Current Conditions -  °F | °C
As of 10:45 AM on Friday 31 Oct 2014 (Local Time) from KJVL Reporting Station
Broken Clouds Broken Clouds  
Wind Chill: 26°   Ceiling: 3600
Heat Index: 37°   Visibility: 10mi
Dew Point: 21°   Wind: 25mph
Humidity: 52%   Direction: 360°N
Pressure: 30.25"   Gusts: 37mph
Location:  42.63°N, 88.87°W
Report Text: KJVL 311545Z 36022G32KT 10SM BKN036 03/M06 A3025
Loading
Personal Weather Stations






























Interactive Weather Map
Tropical Storm Tracking
New forecast layout! Learn more

10-Day Weather Forecast

Advertisements
Track Severe Weather on mobile